Terminal Aerodrome Forecast
Issued by NWS

Home | Current Version | Previous Version | Text Only | Print | Product List | Glossary On
Versions: 1 2 3 4 5 6 7 8 9 10 11 12 13 14 15 16 17 18
000
FTUS42 KMLB 261300 AAA
TAFLEE
TAF AMD
KLEE 261321Z 2613/2712 28007KT P6SM SKC
     FM261400 28015G22KT P6SM SCT030 SCT050
     FM261600 28018G28KT P6SM FEW030 SCT120
     FM270000 28014G20KT P6SM SKC=

USA.gov is the U.S. government's official web portal to all federal, state and local government web resources and services.